createdAt,value
2023-05-21T00:01:28.729Z,24.32
2023-05-21T00:03:55.188Z,24.35
2023-05-21T00:06:21.708Z,24.33
2023-05-21T00:08:48.147Z,24.34
2023-05-21T00:11:14.507Z,24.30
2023-05-21T00:13:40.868Z,24.28
2023-05-21T00:16:07.249Z,24.28
2023-05-21T00:18:33.637Z,24.29
2023-05-21T00:21:00.029Z,24.28
2023-05-21T00:23:26.460Z,24.29
2023-05-21T00:25:52.821Z,24.24
2023-05-21T00:28:19.180Z,24.23
2023-05-21T00:30:45.606Z,24.22
2023-05-21T00:33:11.961Z,24.18
2023-05-21T00:35:38.358Z,24.16
2023-05-21T00:38:04.814Z,24.14
2023-05-21T00:40:31.208Z,24.14
2023-05-21T00:42:57.597Z,24.14
2023-05-21T00:45:24.006Z,24.12
2023-05-21T00:47:50.443Z,24.11
2023-05-21T00:50:16.909Z,24.07
2023-05-21T00:52:43.333Z,23.97
2023-05-21T00:55:09.745Z,23.96
2023-05-21T00:57:36.109Z,23.94
2023-05-21T01:00:02.520Z,23.93
2023-05-21T01:02:29.033Z,23.94
2023-05-21T01:04:55.518Z,23.91
2023-05-21T01:07:21.953Z,23.90
2023-05-21T01:09:48.312Z,23.84
2023-05-21T01:12:14.718Z,23.80
2023-05-21T01:14:41.127Z,23.79
2023-05-21T01:17:07.645Z,23.76
2023-05-21T01:19:34.444Z,23.74
2023-05-21T01:22:00.881Z,23.69
2023-05-21T01:24:27.327Z,23.71
2023-05-21T01:26:53.712Z,23.69
2023-05-21T01:29:20.238Z,23.68
2023-05-21T01:31:46.672Z,23.64
2023-05-21T01:34:13.033Z,23.69
2023-05-21T01:36:39.469Z,23.64
2023-05-21T01:39:05.837Z,23.60
2023-05-21T01:41:32.212Z,23.57
2023-05-21T01:43:58.617Z,23.53
2023-05-21T01:46:25.519Z,23.52
2023-05-21T01:48:51.896Z,23.48
2023-05-21T01:51:18.314Z,23.43
2023-05-21T01:53:44.677Z,23.42
2023-05-21T01:56:11.025Z,23.38
2023-05-21T01:58:37.488Z,23.33
2023-05-21T02:01:04.789Z,23.30
2023-05-21T02:03:31.445Z,23.25
2023-05-21T02:05:58.143Z,23.24
2023-05-21T02:08:24.578Z,23.18
2023-05-21T02:10:50.947Z,23.18
2023-05-21T02:13:17.360Z,23.11
2023-05-21T02:15:43.706Z,23.05
2023-05-21T02:18:10.106Z,23.03
2023-05-21T02:20:36.538Z,22.99
2023-05-21T02:23:02.917Z,22.96
2023-05-21T02:25:29.286Z,22.89
2023-05-21T02:27:55.686Z,22.90
2023-05-21T02:30:22.051Z,22.84
2023-05-21T02:32:48.448Z,22.81
2023-05-21T02:35:14.872Z,22.83
2023-05-21T02:37:41.252Z,22.76
2023-05-21T02:40:07.623Z,22.67
2023-05-21T02:42:34.008Z,22.67
2023-05-21T02:45:00.498Z,22.74
2023-05-21T02:47:26.884Z,22.75
2023-05-21T02:49:53.414Z,22.70
2023-05-21T02:52:19.774Z,22.66
2023-05-21T02:54:46.255Z,22.62
2023-05-21T02:57:12.721Z,22.65
2023-05-21T02:59:39.180Z,22.62
2023-05-21T03:02:05.581Z,22.61
2023-05-21T03:04:31.992Z,22.57
2023-05-21T03:06:58.655Z,22.56
2023-05-21T03:09:25.040Z,22.53
2023-05-21T03:11:51.452Z,22.51
2023-05-21T03:14:17.830Z,22.50
2023-05-21T03:16:44.210Z,22.47
2023-05-21T03:19:10.735Z,22.48
2023-05-21T03:21:37.099Z,22.44
2023-05-21T03:24:03.654Z,22.42
2023-05-21T03:26:30.168Z,22.36
2023-05-21T03:28:57.799Z,22.28
2023-05-21T03:31:24.810Z,22.32
2023-05-21T03:34:04.647Z,22.32
2023-05-21T03:36:31.692Z,22.29
2023-05-21T03:38:58.093Z,22.24
2023-05-21T03:41:24.490Z,22.16
2023-05-21T03:43:56.062Z,22.21
2023-05-21T03:46:25.629Z,22.17
2023-05-21T03:49:02.550Z,22.18
2023-05-21T03:51:31.299Z,22.06
2023-05-21T03:53:58.140Z,22.02
2023-05-21T03:56:25.444Z,22.01
2023-05-21T03:58:52.115Z,22.04
2023-05-21T04:01:18.879Z,21.95
2023-05-21T04:03:47.651Z,22.01
2023-05-21T04:06:15.478Z,21.95
2023-05-21T04:08:41.851Z,21.98
2023-05-21T04:11:08.751Z,21.87
2023-05-21T04:13:35.556Z,21.91
2023-05-21T04:16:03.685Z,21.87
2023-05-21T04:18:30.743Z,21.87
2023-05-21T04:20:57.493Z,21.88
2023-05-21T04:23:23.995Z,21.85
2023-05-21T04:25:51.760Z,21.83
2023-05-21T04:28:18.553Z,21.81
2023-05-21T04:30:44.922Z,21.77
2023-05-21T04:33:11.299Z,21.78
2023-05-21T04:35:37.944Z,21.75
2023-05-21T04:38:04.556Z,21.75
2023-05-21T04:40:31.369Z,21.77
2023-05-21T04:42:57.775Z,21.84
2023-05-21T04:45:24.355Z,21.75
2023-05-21T04:47:51.873Z,21.77
2023-05-21T04:50:18.306Z,21.73
2023-05-21T04:52:44.645Z,21.78
2023-05-21T04:55:11.026Z,21.79
2023-05-21T04:57:37.577Z,21.76
2023-05-21T05:00:04.361Z,21.76
2023-05-21T05:02:36.393Z,21.76
2023-05-21T05:05:02.807Z,21.78
2023-05-21T05:07:29.212Z,21.84
2023-05-21T05:09:55.622Z,21.82
2023-05-21T05:12:22.406Z,21.88
2023-05-21T05:14:49.075Z,21.92
2023-05-21T05:17:15.802Z,21.90
2023-05-21T05:19:43.247Z,21.91
2023-05-21T05:22:10.398Z,21.95
2023-05-21T05:24:38.168Z,21.98
2023-05-21T05:27:04.584Z,21.98
2023-05-21T05:29:32.018Z,22.09
2023-05-21T05:31:59.097Z,22.13
2023-05-21T05:34:25.479Z,22.18
2023-05-21T05:36:51.921Z,22.18
2023-05-21T05:39:18.352Z,22.12
2023-05-21T05:41:45.920Z,22.20
2023-05-21T05:44:12.321Z,22.22
2023-05-21T05:46:38.982Z,22.20
2023-05-21T05:49:05.412Z,22.25
2023-05-21T05:51:31.757Z,22.30
2023-05-21T05:53:58.448Z,22.37
2023-05-21T05:56:24.874Z,22.48
2023-05-21T05:58:51.269Z,22.52
2023-05-21T06:01:17.872Z,22.61
2023-05-21T06:03:44.627Z,22.61
2023-05-21T06:06:14.306Z,22.68
2023-05-21T06:08:40.776Z,22.74
2023-05-21T06:11:07.212Z,22.78
2023-05-21T06:13:33.576Z,22.78
2023-05-21T06:15:59.979Z,22.79
2023-05-21T06:18:26.520Z,22.83
2023-05-21T06:20:53.193Z,22.93
2023-05-21T06:23:21.608Z,22.92
2023-05-21T06:25:48.802Z,23.02
2023-05-21T06:28:15.968Z,23.08
2023-05-21T06:30:42.428Z,23.19
2023-05-21T06:33:08.904Z,23.20
2023-05-21T06:35:35.535Z,23.27
2023-05-21T06:38:02.218Z,23.30
2023-05-21T06:40:28.657Z,23.32
2023-05-21T06:42:57.791Z,23.35
2023-05-21T06:45:36.429Z,23.42
2023-05-21T06:48:18.385Z,23.43
2023-05-21T06:50:45.817Z,23.27
2023-05-21T06:53:12.412Z,23.58
2023-05-21T06:55:39.028Z,23.58
2023-05-21T06:58:19.248Z,23.62
2023-05-21T07:00:46.736Z,23.68
2023-05-21T07:03:13.245Z,23.70
2023-05-21T07:05:40.068Z,23.76
2023-05-21T07:08:06.612Z,23.78
2023-05-21T07:10:32.966Z,23.90
2023-05-21T07:12:59.408Z,23.95
2023-05-21T07:15:26.388Z,24.00
2023-05-21T07:17:52.861Z,24.15
2023-05-21T07:20:19.360Z,24.16
2023-05-21T07:22:48.916Z,24.20
2023-05-21T07:25:16.846Z,24.26
2023-05-21T07:27:43.283Z,24.27
2023-05-21T07:30:09.710Z,24.38
2023-05-21T07:32:36.491Z,24.41
2023-05-21T07:35:02.917Z,24.44
2023-05-21T07:37:30.023Z,24.41
2023-05-21T07:39:56.769Z,24.64
2023-05-21T07:42:23.162Z,24.74
2023-05-21T07:44:49.519Z,24.76
2023-05-21T07:47:15.907Z,24.74
2023-05-21T07:49:42.395Z,24.79
2023-05-21T07:52:08.830Z,24.86
2023-05-21T07:54:35.797Z,24.77
2023-05-21T07:57:02.512Z,24.93
2023-05-21T07:59:46.191Z,25.04
2023-05-21T08:02:12.640Z,25.18
2023-05-21T08:04:41.184Z,25.30
2023-05-21T08:07:09.434Z,25.43
2023-05-21T08:09:35.950Z,25.49
2023-05-21T08:12:02.411Z,25.36
2023-05-21T08:14:30.084Z,25.52
2023-05-21T08:16:56.627Z,25.55
2023-05-21T08:19:23.384Z,25.64
2023-05-21T08:21:52.032Z,25.78
2023-05-21T08:24:20.074Z,25.88
2023-05-21T08:26:46.972Z,25.92
2023-05-21T08:29:13.439Z,25.98
2023-05-21T08:31:40.065Z,25.94
2023-05-21T08:34:06.428Z,25.98
2023-05-21T08:36:40.653Z,26.02
2023-05-21T08:39:16.110Z,26.04
2023-05-21T08:41:43.191Z,26.08
2023-05-21T08:44:10.878Z,26.11
2023-05-21T08:46:37.263Z,26.17
2023-05-21T08:49:03.789Z,26.23
2023-05-21T08:51:30.462Z,26.39
2023-05-21T08:53:56.831Z,26.41
2023-05-21T08:56:23.359Z,26.49
2023-05-21T08:58:54.435Z,26.53
2023-05-21T09:01:25.648Z,26.55
2023-05-21T09:04:18.847Z,26.58
2023-05-21T09:06:48.254Z,26.34
2023-05-21T09:09:18.604Z,26.80
2023-05-21T09:11:48.182Z,26.82
2023-05-21T09:14:14.783Z,26.85
2023-05-21T09:16:59.356Z,26.87
2023-05-21T09:19:26.322Z,26.92
2023-05-21T09:21:52.807Z,26.98
2023-05-21T09:24:21.824Z,27.03
2023-05-21T09:26:48.857Z,27.15
2023-05-21T09:29:15.198Z,27.20
2023-05-21T09:31:41.634Z,27.35
2023-05-21T09:34:08.040Z,27.35
2023-05-21T09:36:34.729Z,27.47
2023-05-21T09:39:01.169Z,27.53
2023-05-21T09:41:27.548Z,27.58
2023-05-21T09:43:53.895Z,27.67
2023-05-21T09:46:20.327Z,27.77
2023-05-21T09:48:46.706Z,27.86
2023-05-21T09:51:15.019Z,27.89
2023-05-21T09:53:41.417Z,27.97
2023-05-21T09:56:07.766Z,28.06
2023-05-21T09:58:34.127Z,28.08
2023-05-21T10:01:00.549Z,28.15
2023-05-21T10:03:26.931Z,28.18
2023-05-21T10:05:53.295Z,28.27
2023-05-21T10:08:19.760Z,28.28
2023-05-21T10:10:46.152Z,28.32
2023-05-21T10:13:12.552Z,28.48
2023-05-21T10:15:38.958Z,28.54
2023-05-21T10:18:05.356Z,28.57
2023-05-21T10:20:31.755Z,28.65
2023-05-21T10:22:58.158Z,28.68
2023-05-21T10:25:24.520Z,28.78
2023-05-21T10:27:50.877Z,28.73
2023-05-21T10:30:17.325Z,28.93
2023-05-21T10:32:43.849Z,28.99
2023-05-21T10:35:10.309Z,29.00
2023-05-21T10:37:36.718Z,29.03
2023-05-21T10:40:03.086Z,29.11
2023-05-21T10:42:29.452Z,29.11
2023-05-21T10:44:55.841Z,29.27
2023-05-21T10:47:22.218Z,29.36
2023-05-21T10:49:48.573Z,29.46
2023-05-21T10:52:14.992Z,29.51
2023-05-21T10:54:41.341Z,29.58
2023-05-21T10:57:07.704Z,29.74
2023-05-21T10:59:34.136Z,29.75
2023-05-21T11:02:00.608Z,29.87
2023-05-21T11:04:27.003Z,29.95
2023-05-21T11:06:53.424Z,29.98
2023-05-21T11:09:19.783Z,30.11
2023-05-21T11:11:46.210Z,30.19
2023-05-21T11:14:12.897Z,30.23
2023-05-21T11:16:39.299Z,30.30
2023-05-21T11:19:05.730Z,30.37
2023-05-21T11:21:32.278Z,30.38
2023-05-21T11:23:58.633Z,30.47
2023-05-21T11:26:25.009Z,30.50
2023-05-21T11:28:51.449Z,30.57
2023-05-21T11:31:17.875Z,30.66
2023-05-21T11:33:44.254Z,30.65
2023-05-21T11:36:10.656Z,30.78
2023-05-21T11:38:37.032Z,30.87
2023-05-21T11:41:03.390Z,30.92
2023-05-21T11:43:29.802Z,30.93
2023-05-21T11:45:56.142Z,30.90
2023-05-21T11:48:23.840Z,30.83
2023-05-21T11:50:51.429Z,30.80
2023-05-21T11:53:17.799Z,30.84
2023-05-21T11:55:44.179Z,30.82
2023-05-21T11:58:10.618Z,30.81
2023-05-21T12:00:37.182Z,30.99
2023-05-21T12:03:03.779Z,31.01
2023-05-21T12:05:30.270Z,31.10
2023-05-21T12:07:56.855Z,31.23
2023-05-21T12:10:23.289Z,31.22
2023-05-21T12:12:55.863Z,31.28
2023-05-21T12:15:23.123Z,31.32
2023-05-21T12:20:15.944Z,31.30
2023-05-21T12:22:42.311Z,31.26
2023-05-21T12:25:08.701Z,31.29
2023-05-21T12:27:35.253Z,31.29
2023-05-21T12:30:01.647Z,31.31
2023-05-21T12:32:28.063Z,31.36
2023-05-21T12:34:54.513Z,31.39
2023-05-21T12:37:20.927Z,31.44
2023-05-21T12:39:47.412Z,31.49
2023-05-21T12:42:13.792Z,31.56
2023-05-21T12:44:40.158Z,31.59
2023-05-21T12:47:06.564Z,31.62
2023-05-21T12:49:32.913Z,31.66
2023-05-21T12:51:59.263Z,31.71
2023-05-21T12:54:25.653Z,31.75
2023-05-21T12:56:52.010Z,31.73
2023-05-21T12:59:18.373Z,31.78
2023-05-21T13:01:44.887Z,31.82
2023-05-21T13:04:11.364Z,31.87
2023-05-21T13:06:37.822Z,31.88
2023-05-21T13:09:04.227Z,31.88
2023-05-21T13:11:30.565Z,31.98
2023-05-21T13:13:56.928Z,31.97
2023-05-21T13:16:23.401Z,32.00
2023-05-21T13:18:49.831Z,32.04
2023-05-21T13:21:16.241Z,32.07
2023-05-21T13:23:42.633Z,32.08
2023-05-21T13:26:08.980Z,32.12
2023-05-21T13:28:35.333Z,32.20
2023-05-21T13:31:01.740Z,32.23
2023-05-21T13:33:28.403Z,32.27
2023-05-21T13:35:54.875Z,32.29
2023-05-21T13:38:21.282Z,32.31
2023-05-21T13:40:47.665Z,32.40
2023-05-21T13:43:14.021Z,32.47
2023-05-21T13:45:40.411Z,32.49
2023-05-21T13:48:06.882Z,32.51
2023-05-21T13:50:33.264Z,32.56
2023-05-21T13:52:59.685Z,32.59
2023-05-21T13:55:26.146Z,32.59
2023-05-21T13:57:52.539Z,32.63
2023-05-21T14:00:18.963Z,32.66
2023-05-21T14:02:45.507Z,32.72
2023-05-21T14:05:12.115Z,32.72
2023-05-21T14:07:38.518Z,32.80
2023-05-21T14:10:04.883Z,32.76
2023-05-21T14:12:31.323Z,32.80
2023-05-21T14:14:57.763Z,32.80
2023-05-21T14:17:24.128Z,32.83
2023-05-21T14:19:50.528Z,32.81
2023-05-21T14:22:17.042Z,32.88
2023-05-21T14:24:43.414Z,32.91
2023-05-21T14:27:09.808Z,32.87
2023-05-21T14:29:36.216Z,32.91
2023-05-21T14:32:02.689Z,32.89
2023-05-21T14:34:29.131Z,32.85
2023-05-21T14:36:55.530Z,32.88
2023-05-21T14:39:21.883Z,32.90
2023-05-21T14:41:48.233Z,32.95
2023-05-21T14:44:16.068Z,32.96
2023-05-21T14:46:42.502Z,32.97
2023-05-21T14:49:08.912Z,33.02
2023-05-21T14:51:35.312Z,33.06
2023-05-21T14:54:01.666Z,33.06
2023-05-21T14:56:28.109Z,33.07
2023-05-21T14:58:54.594Z,33.08
2023-05-21T15:01:20.988Z,33.06
2023-05-21T15:03:47.521Z,33.08
2023-05-21T15:06:14.033Z,33.09
2023-05-21T15:08:40.388Z,33.14
2023-05-21T15:11:06.740Z,33.18
2023-05-21T15:13:33.161Z,33.20
2023-05-21T15:15:59.579Z,33.20
2023-05-21T15:18:25.955Z,33.21
2023-05-21T15:20:52.348Z,33.22
2023-05-21T15:23:18.751Z,33.23
2023-05-21T15:25:45.212Z,33.20
2023-05-21T15:28:11.721Z,33.20
2023-05-21T15:30:38.160Z,33.21
2023-05-21T15:33:04.515Z,33.25
2023-05-21T15:35:31.080Z,33.30
2023-05-21T15:37:57.617Z,33.32
2023-05-21T15:40:26.095Z,33.33
2023-05-21T15:42:53.377Z,33.33
2023-05-21T15:45:19.732Z,33.34
2023-05-21T15:47:46.133Z,33.35
2023-05-21T15:50:12.607Z,33.25
2023-05-21T15:52:38.980Z,33.24
2023-05-21T15:55:05.342Z,33.24
2023-05-21T15:57:31.766Z,33.26
2023-05-21T15:59:58.165Z,33.29
2023-05-21T16:02:24.590Z,33.25
2023-05-21T16:04:51.076Z,33.24
2023-05-21T16:07:17.440Z,33.24
2023-05-21T16:09:43.805Z,33.28
2023-05-21T16:12:10.292Z,33.25
2023-05-21T16:14:36.647Z,33.28
2023-05-21T16:17:03.024Z,33.25
2023-05-21T16:19:29.633Z,33.23
2023-05-21T16:21:56.078Z,33.11
2023-05-21T16:24:22.432Z,33.08
2023-05-21T16:26:48.861Z,33.07
2023-05-21T16:29:15.255Z,33.02
2023-05-21T16:31:41.688Z,33.01
2023-05-21T16:34:08.165Z,32.99
2023-05-21T16:36:34.516Z,32.97
2023-05-21T16:39:00.933Z,32.98
2023-05-21T16:41:27.389Z,32.97
2023-05-21T16:43:53.792Z,32.96
2023-05-21T16:46:20.207Z,32.95
2023-05-21T16:48:46.666Z,32.93
2023-05-21T16:51:13.150Z,32.90
2023-05-21T16:53:39.659Z,32.87
2023-05-21T16:56:06.244Z,32.87
2023-05-21T16:58:32.761Z,32.82
2023-05-21T17:00:59.191Z,32.79
2023-05-21T17:03:25.713Z,32.77
2023-05-21T17:05:52.146Z,32.74
2023-05-21T17:08:18.503Z,32.71
2023-05-21T17:10:44.908Z,32.68
2023-05-21T17:13:21.307Z,32.63
2023-05-21T17:15:49.353Z,32.57
2023-05-21T17:18:15.759Z,32.58
2023-05-21T17:20:42.125Z,32.56
2023-05-21T17:23:08.574Z,32.50
2023-05-21T17:25:35.063Z,32.51
2023-05-21T17:28:01.478Z,32.46
2023-05-21T17:30:27.896Z,32.41
2023-05-21T17:32:54.307Z,32.41
2023-05-21T17:35:20.716Z,32.39
2023-05-21T17:37:47.117Z,32.35
2023-05-21T17:40:13.476Z,32.33
2023-05-21T17:42:39.830Z,32.29
2023-05-21T17:45:06.234Z,32.29
2023-05-21T17:47:32.641Z,32.27
2023-05-21T17:49:59.124Z,32.26
2023-05-21T17:52:25.532Z,32.22
2023-05-21T17:54:51.885Z,32.20
2023-05-21T17:57:18.257Z,32.18
2023-05-21T17:59:44.669Z,32.14
2023-05-21T18:02:11.014Z,32.14
2023-05-21T18:04:37.384Z,32.09
2023-05-21T18:07:03.792Z,32.06
2023-05-21T18:09:30.130Z,32.05
2023-05-21T18:11:57.873Z,32.06
2023-05-21T18:14:24.695Z,32.01
2023-05-21T18:16:51.095Z,31.98
2023-05-21T18:19:17.714Z,31.99
2023-05-21T18:21:44.123Z,31.94
2023-05-21T18:24:10.478Z,31.94
2023-05-21T18:26:36.902Z,31.91
2023-05-21T18:29:03.287Z,31.90
2023-05-21T18:31:29.681Z,31.89
2023-05-21T18:33:56.054Z,31.87
2023-05-21T18:36:22.449Z,31.83
2023-05-21T18:38:48.812Z,31.78
2023-05-21T18:41:15.169Z,31.81
2023-05-21T18:43:41.568Z,31.79
2023-05-21T18:46:08.021Z,31.75
2023-05-21T18:48:34.388Z,31.75
2023-05-21T18:51:00.804Z,31.73
2023-05-21T18:53:27.188Z,31.70
2023-05-21T18:55:53.545Z,31.65
2023-05-21T18:58:20.023Z,31.63
2023-05-21T19:00:46.451Z,31.59
2023-05-21T19:03:12.811Z,31.59
2023-05-21T19:05:39.234Z,31.52
2023-05-21T19:08:05.604Z,31.50
2023-05-21T19:10:31.970Z,31.45
2023-05-21T19:12:58.359Z,31.41
2023-05-21T19:15:24.711Z,31.33
2023-05-21T19:17:51.135Z,31.37
2023-05-21T19:20:17.561Z,31.27
2023-05-21T19:22:43.908Z,31.17
2023-05-21T19:25:10.276Z,31.17
2023-05-21T19:27:36.679Z,31.17
2023-05-21T19:30:03.055Z,31.09
2023-05-21T19:32:29.418Z,31.06
2023-05-21T19:34:55.827Z,31.03
2023-05-21T19:37:22.195Z,30.98
2023-05-21T19:39:48.573Z,30.98
2023-05-21T19:42:14.978Z,30.97
2023-05-21T19:44:41.334Z,30.78
2023-05-21T19:47:07.689Z,30.70
2023-05-21T19:49:34.099Z,30.66
2023-05-21T19:52:00.445Z,30.60
2023-05-21T19:54:26.802Z,30.57
2023-05-21T19:56:53.222Z,30.64
2023-05-21T19:59:19.589Z,30.56
2023-05-21T20:01:46.057Z,30.32
2023-05-21T20:04:12.608Z,30.30
2023-05-21T20:06:39.045Z,30.23
2023-05-21T20:09:05.397Z,30.25
2023-05-21T20:11:31.800Z,30.22
2023-05-21T20:13:58.163Z,30.10
2023-05-21T20:16:24.688Z,30.16
2023-05-21T20:18:51.153Z,30.11
2023-05-21T20:21:17.563Z,30.06
2023-05-21T20:23:43.957Z,29.97
2023-05-21T20:26:10.394Z,29.90
2023-05-21T20:28:36.758Z,29.84
2023-05-21T20:31:03.146Z,29.82
2023-05-21T20:33:29.557Z,29.61
2023-05-21T20:35:55.912Z,29.63
2023-05-21T20:38:22.351Z,29.60
2023-05-21T20:40:48.784Z,29.58
2023-05-21T20:43:15.152Z,29.53
2023-05-21T20:45:41.584Z,29.52
2023-05-21T20:48:08.007Z,29.50
2023-05-21T20:50:34.383Z,29.44
2023-05-21T20:53:00.740Z,29.46
2023-05-21T20:55:27.190Z,29.39
2023-05-21T20:57:53.550Z,29.36
2023-05-21T21:00:19.922Z,29.37
2023-05-21T21:02:46.394Z,29.38
2023-05-21T21:05:12.834Z,29.34
2023-05-21T21:07:39.183Z,29.33
2023-05-21T21:10:05.603Z,29.27
2023-05-21T21:12:31.981Z,29.38
2023-05-21T21:14:58.387Z,29.32
2023-05-21T21:17:24.919Z,29.31
2023-05-21T21:19:51.302Z,29.27
2023-05-21T21:22:17.682Z,29.29
2023-05-21T21:24:44.082Z,29.28
2023-05-21T21:27:10.459Z,29.22
2023-05-21T21:29:36.829Z,29.11
2023-05-21T21:32:03.238Z,29.13
2023-05-21T21:34:29.605Z,29.15
2023-05-21T21:36:55.957Z,29.14
2023-05-21T21:39:22.445Z,29.10
2023-05-21T21:41:48.808Z,29.12
2023-05-21T21:44:15.179Z,29.10
2023-05-21T21:46:41.590Z,29.13
2023-05-21T21:49:07.981Z,29.05
2023-05-21T21:51:34.371Z,28.91
2023-05-21T21:54:00.788Z,29.00
2023-05-21T21:56:27.177Z,28.88
2023-05-21T21:58:53.619Z,28.94
2023-05-21T22:01:20.250Z,28.91
2023-05-21T22:03:46.658Z,28.91
2023-05-21T22:06:13.014Z,28.84
2023-05-21T22:08:39.399Z,28.81
2023-05-21T22:11:05.754Z,28.74
2023-05-21T22:13:32.107Z,28.70
2023-05-21T22:15:58.504Z,28.64
2023-05-21T22:18:38.826Z,28.60
2023-05-21T22:21:06.426Z,28.52
2023-05-21T22:23:32.799Z,28.54
2023-05-21T22:25:59.163Z,28.49
2023-05-21T22:28:25.569Z,28.44
2023-05-21T22:30:51.977Z,28.35
2023-05-21T22:33:18.425Z,28.25
2023-05-21T22:35:44.878Z,28.22
2023-05-21T22:38:11.248Z,28.17
2023-05-21T22:40:37.782Z,28.15
2023-05-21T22:43:04.475Z,28.09
2023-05-21T22:45:30.838Z,28.00
2023-05-21T22:47:57.311Z,27.96
2023-05-21T22:50:23.830Z,27.97
2023-05-21T22:52:50.185Z,27.96
2023-05-21T22:55:16.544Z,27.83
2023-05-21T22:57:42.961Z,27.81
2023-05-21T23:00:09.312Z,27.76
2023-05-21T23:02:35.722Z,27.69
2023-05-21T23:05:02.182Z,27.51
2023-05-21T23:07:28.629Z,27.44
2023-05-21T23:09:55.002Z,27.44
2023-05-21T23:12:21.395Z,27.45
2023-05-21T23:14:47.749Z,27.41
2023-05-21T23:17:14.106Z,27.37
2023-05-21T23:19:40.506Z,27.33
2023-05-21T23:22:06.877Z,27.39
2023-05-21T23:24:33.228Z,27.37
2023-05-21T23:26:59.614Z,27.32
2023-05-21T23:29:25.962Z,27.30
2023-05-21T23:31:52.348Z,27.31
2023-05-21T23:34:18.744Z,27.23
2023-05-21T23:36:45.102Z,27.20
2023-05-21T23:39:11.486Z,27.15
2023-05-21T23:41:37.902Z,27.03
2023-05-21T23:44:04.398Z,26.97
2023-05-21T23:46:30.773Z,26.90
2023-05-21T23:48:57.254Z,26.84
2023-05-21T23:51:23.657Z,26.81
2023-05-21T23:53:50.055Z,26.81
2023-05-21T23:56:16.482Z,26.88
2023-05-21T23:58:42.852Z,26.84
